Wednesday, October 22, 2014
12:22 UTC
  |  Log In   |  Register Free
Airport Search:

Julian Carroll Airport
(KJKL)

Julian Carroll Airport Diagram
No Airport Diagram Available

FAA data valid effective September 18, 2014 - November 13, 2014 (unless otherwise noted).

 
 
 
 
 
 
 
 
 
 
 
 
 
 

Current Aviation Weather for Julian Carroll Airport (KJKL)

The most recent METAR observation for KJKL was updated at: 1216
METAR Summary (Translated METAR)
KJKL
221153Z AUTO VRB03KT 10SM OVC011 06/04 A3020 RMK AO2 SLP228 70001 T00560039 10072 20050 51018
KPBX
221155Z AUTO 34004KT 10SM OVC008 06/05 A3018 RMK AO2 T00580045 10066 20052
(35.8 nm SE from KJKL)
KIOB
221155Z AUTO 00000KT 10SM OVC015 06/04 A3024 RMK AO2
(42 nm NW from KJKL)
TAF Summary (Translated TAF)
KJKL
220842Z 2209/2306 34005KT P6SM BKN040 FM221000 35003KT P6SM OVC015 FM221500 35003KT P6SM BKN025 FM221800 33004KT P6SM SCT025 BKN035 FM230300 00000KT P6SM BKN030
  Airport Weather Conditions for KJKL

 Current Weather at JKL
42° F
Overcast
Variable winds at 3.5 mph
JKL NOAA Radar

Pressure: 30.20 in
Humidity: 89%
Wind: Variable at 3.5 MPH (3 KT)
Dew Point: 39.0°F
Visibility: 10.00 mi


Airport Weather Forecast for KJKL

Translated METAR and TAF for KJKL
Translated METAR for KJKL (1217 UTC 22 October 2014)
found at http://aviationweather.gov/adds/metars/
 
METAR text: KJKL 221153Z AUTO VRB03KT 10SM OVC011 06/04 A3020 RMK AO2 SLP228 70001 T00560039 10072 20050 51018
Conditions at: KJKL (NOCTOR/JACKSON , KY, US) observed 1153 UTC 22 October 2014
Temperature: 5.6°C (42°F)
Dewpoint: 3.9°C (39°F) [RH = 89%]
Pressure (altimeter): 30.20 inches Hg (1022.8 mb)
[Sea-level pressure: 1022.8 mb]
Winds: variable direction winds at 3 MPH (3 knots; 1.6 m/s)
Visibility: 10 or more miles (16+ km)
Ceiling: 1100 feet AGL
Clouds: overcast cloud deck at 1100 feet AGL
Weather: automated observation with no human augmentation;
there may or may not be significant weather present at this time
Translated TAF for KJKL
Forecast for: KJKL (NOCTOR/JACKSON , KY, US)
TAF Text: KJKL 221125Z 2212/2312 VRB03KT P6SM BKN015 BKN035
Forecast period: 1200 to 1500 UTC 22 October 2014
Forecast type: FROM: standard forecast or significant change
Winds: variable direction winds at 3 MPH (3 knots; 1.6 m/s)
Visibility: 6 or more miles (10+ km)
Ceiling: 1500 feet AGL
Clouds: broken clouds at 1500 feet AGL
broken clouds at 3500 feet AGL
Weather: no significant weather forecast for this period
TAF Text: FM221500 35003KT P6SM BKN025
Forecast period: 1500 to 1700 UTC 22 October 2014
Forecast type: FROM: standard forecast or significant change
Winds: from the N (350 degrees) at 3 MPH (3 knots; 1.6 m/s)
Visibility: 6 or more miles (10+ km)
Ceiling: 2500 feet AGL
Clouds: broken clouds at 2500 feet AGL
Weather: no significant weather forecast for this period
TAF Text: FM221700 34004KT P6SM SCT025 SCT050
Forecast period: 1700 UTC 22 October 2014 to 0300 UTC 23 October 2014
Forecast type: FROM: standard forecast or significant change
Winds: from the NNW (340 degrees) at 5 MPH (4 knots; 2.1 m/s)
Visibility: 6 or more miles (10+ km)
Clouds: scattered clouds at 2500 feet AGL
scattered clouds at 5000 feet AGL
Weather: no significant weather forecast for this period
TAF Text: FM230300 VRB03KT P6SM FEW030
Forecast period: 0300 to 1200 UTC 23 October 2014
Forecast type: FROM: standard forecast or significant change
Winds: variable direction winds at 3 MPH (3 knots; 1.6 m/s)
Visibility: 6 or more miles (10+ km)
Clouds: few clouds at 3000 feet AGL
Weather: no significant weather forecast for this period

Find All Airport Services Find A Hotel Find A Rental Car Find A Golf Course Find A Restaurant $100 Hamburger



FBO's on the Field
FBO Company Facility Photos Services Transportation Aviation Fuel Prices: Prices include tax
Catering Weather Repair Courtesy Rental Type 100LL JetA JetA+ MOGAS 8087
 
Julian Carroll Airport

This FBO has not yet been rated
FS:Independent
Last Updated: Oct-07
Login to update fuel prices
SS:
Contact Julian Carroll AirportMore FBO Information
 
Add another FBO Facility Photos Catering Weather Repair Courtesy Rental Type 100LL JetA JetA+ MOGAS 8087
Services Transportation Aviation Fuel Prices: Prices include tax


model-print
model-print
model-print
model-print